Time;durP1;ratioP1;P1;durP2;ratioP2;P2;SDS_P1;SDS_P2;PMS_P1;PMS_P2;Temp;Humidity;BMP_temperature;BMP_pressure;BME280_temperature;BME280_humidity;BME280_pressure;Samples;Min_cycle;Max_cycle;Signal;HPM_P1;HPM_P2
2022/02/19 00:02:01;;;;;;;26.53;24.77;;;;;;;6.59;62.91;96172.56;5114345;28;20274;-62
2022/02/19 00:04:26;;;;;;;31.43;29.30;;;;;;;6.53;62.94;96170.81;5108769;28;20644;-59
2022/02/19 00:06:51;;;;;;;25.37;23.73;;;;;;;6.51;63.05;96185.06;5114640;28;20168;-60
2022/02/19 00:09:17;;;;;;;23.93;22.47;;;;;;;6.41;62.86;96176.97;5114320;28;20200;-59
2022/02/19 00:11:42;;;;;;;23.67;22.37;;;;;;;6.50;62.60;96188.69;5108622;28;21400;-61
2022/02/19 00:14:08;;;;;;;31.53;29.37;;;;;;;6.48;62.80;96190.69;5075508;28;20181;-60
2022/02/19 00:16:33;;;;;;;27.20;25.37;;;;;;;6.37;62.28;96184.38;5093200;28;20207;-64
2022/02/19 00:18:59;;;;;;;26.47;24.67;;;;;;;6.41;62.61;96205.59;5093961;28;20208;-62
2022/02/19 00:21:24;;;;;;;26.07;24.47;;;;;;;6.40;61.86;96199.59;5091663;28;20202;-62
2022/02/19 00:23:50;;;;;;;25.27;23.83;;;;;;;6.45;61.23;96198.94;5088877;28;20208;-62
2022/02/19 00:26:15;;;;;;;29.20;27.43;;;;;;;6.45;61.19;96204.94;5092979;28;20187;-62
2022/02/19 00:28:41;;;;;;;28.83;27.07;;;;;;;6.45;61.68;96214.56;5093580;28;20193;-61
2022/02/19 00:31:06;;;;;;;28.37;26.73;;;;;;;6.34;61.22;96210.06;5093116;28;20578;-60
2022/02/19 00:33:32;;;;;;;25.13;23.37;;;;;;;6.38;60.24;96204.22;5093096;28;20172;-62
2022/02/19 00:35:57;;;;;;;24.27;22.63;;;;;;;6.42;60.11;96223.59;5093510;28;20172;-62
2022/02/19 00:38:23;;;;;;;25.03;23.63;;;;;;;6.50;59.74;96218.13;5093632;28;20619;-62
2022/02/19 00:40:49;;;;;;;22.97;21.40;;;;;;;6.41;60.53;96226.41;5091966;28;20180;-63
2022/02/19 00:43:15;;;;;;;20.70;19.33;;;;;;;6.34;60.03;96231.69;5089432;28;20196;-62
2022/02/19 00:45:40;;;;;;;21.70;20.37;;;;;;;6.39;60.45;96234.44;5075245;28;20177;-60
2022/02/19 00:48:07;;;;;;;20.97;19.70;;;;;;;6.40;59.92;96235.22;5091984;28;20188;-60
2022/02/19 00:50:32;;;;;;;21.20;19.83;;;;;;;6.32;59.33;96235.50;5092330;28;20652;-57
2022/02/19 00:52:58;;;;;;;19.27;18.07;;;;;;;6.28;59.34;96231.72;5090660;28;20204;-60
2022/02/19 00:55:24;;;;;;;22.73;21.07;;;;;;;6.27;59.09;96238.72;5090636;28;20274;-61
2022/02/19 00:57:50;;;;;;;18.93;17.53;;;;;;;6.33;59.12;96256.09;5092609;28;20177;-61
2022/02/19 01:00:16;;;;;;;23.03;20.90;;;;;;;6.38;59.42;96240.66;5092889;28;20185;-61
2022/02/19 01:02:42;;;;;;;20.87;18.97;;;;;;;6.33;58.81;96242.28;5093561;28;20283;-61
2022/02/19 01:05:08;;;;;;;24.47;22.83;;;;;;;6.32;58.53;96248.50;5092859;28;20192;-61
2022/02/19 01:07:34;;;;;;;24.93;23.23;;;;;;;6.34;58.25;96254.31;5090907;28;20556;-59
2022/02/19 01:10:00;;;;;;;23.53;21.90;;;;;;;6.30;57.82;96245.34;5092030;28;20213;-61
2022/02/19 01:12:25;;;;;;;19.57;18.47;;;;;;;6.28;57.83;96260.34;5090647;28;20232;-61
2022/02/19 01:14:51;;;;;;;22.07;20.43;;;;;;;6.37;57.83;96261.66;5105704;28;20176;-63
2022/02/19 01:17:16;;;;;;;19.57;18.10;;;;;;;6.31;57.42;96262.50;5112450;28;20164;-60
2022/02/19 01:19:42;;;;;;;23.50;22.07;;;;;;;6.38;57.48;96263.28;5112459;28;20176;-60
2022/02/19 01:22:08;;;;;;;20.33;19.10;;;;;;;6.30;57.47;96276.56;5112705;28;20252;-60
2022/02/19 01:24:34;;;;;;;23.57;22.10;;;;;;;6.37;57.65;96278.09;5113087;28;20562;-60
2022/02/19 01:26:59;;;;;;;24.07;22.67;;;;;;;6.25;58.13;96292.78;5112760;28;20171;-60
2022/02/19 01:29:25;;;;;;;25.63;23.90;;;;;;;6.45;57.78;96282.25;5112721;28;20206;-60
2022/02/19 01:31:50;;;;;;;19.60;17.97;;;;;;;6.27;57.71;96267.34;5112299;28;20208;-60
2022/02/19 01:34:16;;;;;;;23.57;22.03;;;;;;;6.35;58.05;96284.53;5112966;28;20221;-56
2022/02/19 01:36:42;;;;;;;22.43;20.93;;;;;;;6.42;57.24;96278.25;5112767;28;20172;-59
2022/02/19 01:39:07;;;;;;;20.53;18.90;;;;;;;6.29;57.29;96288.78;5113079;28;20242;-59
2022/02/19 01:41:33;;;;;;;24.47;22.97;;;;;;;6.36;57.11;96286.91;5108023;28;20627;-60
2022/02/19 01:44:06;;;;;;;19.53;18.20;;;;;;;6.23;55.61;96289.63;5112602;28;20218;-61
2022/02/19 01:46:32;;;;;;;20.93;19.40;;;;;;;6.19;55.17;96302.22;5112496;28;20579;-61
2022/02/19 01:48:58;;;;;;;20.00;18.80;;;;;;;6.18;55.33;96307.66;5112565;28;20264;-59
2022/02/19 01:51:24;;;;;;;20.73;19.47;;;;;;;6.28;55.54;96299.38;5092008;28;20193;-57
2022/02/19 01:53:49;;;;;;;22.53;21.03;;;;;;;6.23;55.47;96313.84;5111437;28;20176;-61
2022/02/19 01:56:15;;;;;;;23.13;21.53;;;;;;;6.27;55.38;96319.41;5113548;28;20588;-61
2022/02/19 01:58:41;;;;;;;23.60;22.30;;;;;;;6.18;55.86;96310.28;5112411;28;20205;-60
2022/02/19 02:01:06;;;;;;;22.40;21.10;;;;;;;6.24;56.17;96320.59;5112335;28;20180;-60
2022/02/19 02:03:33;;;;;;;23.00;21.50;;;;;;;6.22;56.22;96320.03;5111901;28;20218;-60
2022/02/19 02:06:00;;;;;;;22.70;21.00;;;;;;;6.25;56.12;96305.78;5112621;28;20232;-61
2022/02/19 02:08:25;;;;;;;23.70;21.83;;;;;;;6.18;56.00;96318.88;5112356;28;20194;-61
2022/02/19 02:10:51;;;;;;;25.17;23.40;;;;;;;6.18;55.96;96326.69;5112477;28;20184;-61
2022/02/19 02:13:16;;;;;;;24.20;22.60;;;;;;;6.18;55.74;96326.69;5100321;28;20319;-61
2022/02/19 02:15:42;;;;;;;22.53;21.00;;;;;;;6.05;56.30;96331.94;5101032;28;20188;-61
2022/02/19 02:18:07;;;;;;;25.10;23.50;;;;;;;6.04;56.70;96337.34;5092033;28;20192;-61
2022/02/19 02:20:33;;;;;;;21.70;20.40;;;;;;;6.09;56.58;96340.13;5092454;28;20502;-61
2022/02/19 02:22:59;;;;;;;24.20;22.20;;;;;;;6.19;56.10;96343.88;5091846;28;20197;-61
2022/02/19 02:25:30;;;;;;;24.20;22.47;;;;;;;6.06;56.13;96341.34;5092303;28;20275;-61
2022/02/19 02:27:57;;;;;;;21.80;20.40;;;;;;;6.06;56.24;96337.97;5093034;28;20173;-61
2022/02/19 02:30:23;;;;;;;24.13;22.80;;;;;;;5.90;56.46;96344.44;5096054;28;20189;-59
2022/02/19 02:32:49;;;;;;;20.93;19.50;;;;;;;5.91;57.25;96346.03;5099432;28;20199;-61
2022/02/19 02:35:15;;;;;;;22.67;21.03;;;;;;;6.04;56.70;96345.16;5096239;28;20477;-61
2022/02/19 02:37:40;;;;;;;22.20;20.23;;;;;;;5.93;56.88;96351.03;5095978;28;20165;-59
2022/02/19 02:40:07;;;;;;;20.73;19.30;;;;;;;5.89;56.92;96348.06;5078742;28;20206;-60
2022/02/19 02:42:32;;;;;;;19.87;18.63;;;;;;;5.83;56.70;96351.44;5103518;28;20209;-59
2022/02/19 02:44:57;;;;;;;22.37;20.73;;;;;;;5.77;56.29;96353.06;5109669;28;20168;-58
2022/02/19 02:47:24;;;;;;;23.10;21.73;;;;;;;5.90;56.46;96356.66;5107470;28;20168;-59
2022/02/19 02:49:50;;;;;;;22.43;20.93;;;;;;;5.79;56.23;96356.28;5112919;28;20225;-60
2022/02/19 02:52:15;;;;;;;20.30;18.73;;;;;;;5.80;56.06;96365.66;5103169;28;20735;-58
2022/02/19 02:54:41;;;;;;;19.03;17.57;;;;;;;5.77;55.78;96365.28;5095515;28;20563;-60
2022/02/19 02:57:07;;;;;;;21.27;19.67;;;;;;;5.71;55.98;96369.50;5095756;28;20165;-60
2022/02/19 02:59:51;;;;;;;22.47;20.30;;;;;;;5.69;55.53;96376.69;5105596;28;20217;-60
2022/02/19 03:02:17;;;;;;;25.10;23.40;;;;;;;5.66;56.13;96377.13;5106930;28;20633;-58
2022/02/19 03:04:42;;;;;;;22.47;21.07;;;;;;;5.58;56.00;96389.53;5089821;28;20223;-59
2022/02/19 03:07:08;;;;;;;22.97;21.17;;;;;;;5.55;56.52;96390.75;5096504;28;20173;-59
2022/02/19 03:09:33;;;;;;;24.93;23.23;;;;;;;5.67;56.22;96389.13;5097026;28;20199;-59
2022/02/19 03:11:58;;;;;;;19.93;18.27;;;;;;;5.64;55.96;96386.09;5098228;28;20319;-62
2022/02/19 03:14:24;;;;;;;21.97;20.67;;;;;;;5.60;55.67;96390.94;5104942;28;20180;-60
2022/02/19 03:16:49;;;;;;;21.53;19.67;;;;;;;5.57;55.44;96403.56;5110801;28;20227;-59
2022/02/19 03:19:15;;;;;;;24.90;22.87;;;;;;;5.54;55.83;96414.34;5111646;28;20188;-59
2022/02/19 03:21:40;;;;;;;18.47;16.70;;;;;;;5.45;55.84;96416.38;5112001;28;20208;-58
2022/02/19 03:24:06;;;;;;;22.73;21.20;;;;;;;5.40;56.30;96414.38;5110542;28;20207;-58
2022/02/19 03:26:31;;;;;;;25.37;23.37;;;;;;;5.42;55.87;96419.34;5110931;28;20176;-56
2022/02/19 03:28:56;;;;;;;22.43;21.03;;;;;;;5.39;55.86;96422.38;5115193;28;20208;-60
2022/02/19 03:31:24;;;;;;;19.43;17.63;;;;;;;5.32;56.90;96424.19;5114959;28;20204;-60
2022/02/19 03:33:49;;;;;;;18.60;17.47;;;;;;;5.31;56.45;96431.16;5107853;28;20176;-60
2022/02/19 03:36:15;;;;;;;23.10;21.00;;;;;;;5.42;56.84;96433.16;5115014;28;20647;-60
2022/02/19 03:38:40;;;;;;;21.73;20.00;;;;;;;5.46;56.67;96430.97;5112992;28;20179;-60
2022/02/19 03:41:06;;;;;;;20.83;19.27;;;;;;;5.50;56.80;96439.16;5115020;28;20170;-60
2022/02/19 03:43:31;;;;;;;19.50;18.00;;;;;;;5.39;56.70;96440.56;5115061;28;20629;-59
2022/02/19 03:45:56;;;;;;;19.50;17.97;;;;;;;5.37;56.84;96450.34;5110291;28;20168;-60
2022/02/19 03:48:22;;;;;;;18.47;17.13;;;;;;;5.30;56.53;96444.34;5108928;28;20173;-59
2022/02/19 03:50:47;;;;;;;20.13;18.47;;;;;;;5.32;57.02;96453.56;5114720;28;20251;-59
2022/02/19 03:53:13;;;;;;;18.63;17.37;;;;;;;5.29;56.80;96459.19;5096283;28;20215;-59
2022/02/19 03:55:39;;;;;;;16.73;15.13;;;;;;;5.29;56.72;96466.97;5114630;28;20182;-58
2022/02/19 03:58:05;;;;;;;22.30;20.53;;;;;;;5.26;56.65;96469.16;5114423;28;20208;-59
2022/02/19 04:00:30;;;;;;;19.80;18.50;;;;;;;5.30;56.60;96481.53;5114422;28;20180;-60
2022/02/19 04:02:56;;;;;;;17.20;16.03;;;;;;;5.21;57.00;96480.16;5114293;28;20740;-59
2022/02/19 04:05:21;;;;;;;18.83;17.23;;;;;;;5.24;57.14;96484.16;5111989;28;20769;-58
2022/02/19 04:07:47;;;;;;;17.93;16.73;;;;;;;5.15;57.27;96493.13;5114677;28;20180;-60
2022/02/19 04:10:13;;;;;;;18.87;17.30;;;;;;;5.09;57.26;96510.31;5114567;28;20208;-59
2022/02/19 04:12:38;;;;;;;19.17;16.33;;;;;;;5.11;57.21;96510.13;5099806;28;20684;-62
2022/02/19 04:15:05;;;;;;;17.63;16.43;;;;;;;5.01;56.78;96513.13;5093007;28;20176;-58
2022/02/19 04:17:30;;;;;;;19.63;18.03;;;;;;;5.02;56.25;96512.09;5092640;28;20176;-56
2022/02/19 04:19:56;;;;;;;17.37;16.00;;;;;;;4.91;56.43;96510.09;5093005;28;20176;-56
2022/02/19 04:22:21;;;;;;;16.63;15.63;;;;;;;4.90;55.86;96516.28;5089603;28;20196;-59
2022/02/19 04:24:47;;;;;;;20.90;19.80;;;;;;;4.89;55.70;96519.88;5093684;28;20181;-57
2022/02/19 04:27:13;;;;;;;20.30;19.20;;;;;;;4.88;54.86;96524.28;5083168;28;20574;-56
2022/02/19 04:29:39;;;;;;;19.20;17.90;;;;;;;4.83;55.41;96536.25;5092864;28;20192;-59
2022/02/19 04:32:06;;;;;;;19.93;18.67;;;;;;;4.70;55.07;96531.00;5093260;28;20749;-58
2022/02/19 04:34:31;;;;;;;22.30;20.90;;;;;;;4.72;55.47;96526.44;5092531;28;20214;-59
2022/02/19 04:36:57;;;;;;;23.33;21.73;;;;;;;4.68;55.94;96533.03;5093531;28;20180;-57
2022/02/19 04:39:22;;;;;;;21.77;20.47;;;;;;;4.65;55.53;96523.00;5092583;28;20200;-59
2022/02/19 04:41:47;;;;;;;23.40;21.60;;;;;;;4.64;55.70;96548.16;5093165;28;20287;-60
2022/02/19 04:44:13;;;;;;;21.37;19.77;;;;;;;4.64;56.12;96542.16;5092250;28;20202;-59
2022/02/19 04:46:38;;;;;;;18.57;17.10;;;;;;;4.67;56.45;96552.19;5092183;28;20229;-58
2022/02/19 04:49:04;;;;;;;19.10;17.67;;;;;;;4.52;56.17;96555.72;5093140;28;20222;-61
2022/02/19 04:51:29;;;;;;;18.73;17.53;;;;;;;4.60;56.60;96545.16;5092737;28;20196;-59
2022/02/19 04:53:55;;;;;;;17.80;16.53;;;;;;;4.50;56.64;96554.31;5093119;28;20216;-59
2022/02/19 04:56:21;;;;;;;16.37;14.90;;;;;;;4.53;56.94;96565.09;5091605;28;20259;-61
2022/02/19 04:58:47;;;;;;;13.27;12.13;;;;;;;4.44;56.39;96548.09;5092337;28;20177;-62
2022/02/19 05:01:13;;;;;;;18.13;16.70;;;;;;;4.48;56.60;96557.09;5087719;28;20180;-58
2022/02/19 05:03:38;;;;;;;15.80;14.50;;;;;;;4.48;56.79;96569.28;5074764;28;20584;-60
2022/02/19 05:06:04;;;;;;;14.23;13.20;;;;;;;4.46;56.47;96569.47;5092840;28;20267;-58
2022/02/19 05:08:30;;;;;;;14.90;13.77;;;;;;;4.51;56.12;96571.50;5085293;28;20181;-60
2022/02/19 05:10:55;;;;;;;16.27;15.07;;;;;;;4.33;56.35;96584.19;5092585;28;20605;-59
2022/02/19 05:13:21;;;;;;;14.53;13.73;;;;;;;4.38;56.06;96587.78;5107883;28;20227;-60
2022/02/19 05:15:47;;;;;;;13.10;12.30;;;;;;;4.37;56.54;96593.97;5112999;28;20639;-59
2022/02/19 05:18:14;;;;;;;14.83;13.67;;;;;;;4.32;55.90;96598.94;5107876;28;20183;-60
2022/02/19 05:20:40;;;;;;;15.63;14.47;;;;;;;4.29;56.93;96596.72;5112685;28;20741;-61
2022/02/19 05:23:06;;;;;;;15.63;14.33;;;;;;;4.30;56.69;96606.09;5113345;28;20208;-61
2022/02/19 05:25:31;;;;;;;13.77;12.73;;;;;;;4.37;55.98;96598.34;5112842;28;20284;-58
2022/02/19 05:27:57;;;;;;;13.23;12.17;;;;;;;4.30;55.94;96618.25;5112420;28;20176;-60
2022/02/19 05:30:22;;;;;;;15.30;14.27;;;;;;;4.38;56.55;96631.09;5112215;28;20196;-61
2022/02/19 05:32:47;;;;;;;16.43;15.43;;;;;;;4.34;56.05;96602.16;5112748;28;20214;-61
2022/02/19 05:35:13;;;;;;;16.20;14.90;;;;;;;4.28;56.67;96630.66;5091347;28;20168;-61
2022/02/19 05:37:39;;;;;;;14.37;13.47;;;;;;;4.25;57.05;96621.44;5107902;28;20615;-60
2022/02/19 05:40:05;;;;;;;14.20;12.80;;;;;;;4.33;56.90;96636.06;5112405;28;20179;-60
2022/02/19 05:42:31;;;;;;;13.70;12.73;;;;;;;4.37;56.26;96638.06;5112672;28;20235;-63
2022/02/19 05:44:56;;;;;;;12.43;11.43;;;;;;;4.32;56.57;96640.44;5111956;28;20224;-61
2022/02/19 05:47:22;;;;;;;11.60;10.93;;;;;;;4.21;56.86;96633.19;5112960;28;20180;-61
2022/02/19 05:49:48;;;;;;;10.87;10.00;;;;;;;4.21;57.56;96645.34;5112403;28;20691;-61
2022/02/19 05:52:14;;;;;;;12.67;11.53;;;;;;;4.24;57.28;96645.78;5113139;28;20597;-61
2022/02/19 05:54:40;;;;;;;10.73;9.83;;;;;;;4.17;58.03;96643.16;5112732;28;20179;-60
2022/02/19 05:57:06;;;;;;;11.30;10.27;;;;;;;4.07;58.06;96640.06;5112543;28;20172;-61
2022/02/19 05:59:31;;;;;;;9.27;8.67;;;;;;;4.15;57.62;96646.91;5112174;28;20259;-58
2022/02/19 06:01:57;;;;;;;10.73;9.00;;;;;;;4.15;58.00;96652.09;5111046;28;20196;-58
2022/02/19 06:04:22;;;;;;;11.33;10.10;;;;;;;4.05;57.97;96649.06;5116239;28;20180;-60
2022/02/19 06:06:48;;;;;;;9.63;8.63;;;;;;;4.08;58.44;96656.44;5094595;28;20223;-61
2022/02/19 06:09:13;;;;;;;9.27;8.53;;;;;;;4.05;58.88;96667.19;5112779;28;20203;-61
2022/02/19 06:11:42;;;;;;;10.50;9.43;;;;;;;3.92;58.64;96665.31;5111308;28;20288;-61
2022/02/19 06:14:09;;;;;;;8.37;7.30;;;;;;;3.93;58.56;96674.69;5096059;28;20211;-60
2022/02/19 06:16:34;;;;;;;8.30;7.03;;;;;;;3.93;58.80;96672.09;5115538;28;20183;-61
2022/02/19 06:19:00;;;;;;;8.00;7.27;;;;;;;4.00;58.58;96677.34;5107614;28;20164;-61
2022/02/19 06:21:25;;;;;;;7.93;7.23;;;;;;;4.00;57.90;96685.91;5098124;28;20200;-60
2022/02/19 06:23:51;;;;;;;8.57;7.80;;;;;;;4.03;58.09;96697.69;5106583;28;20173;-62
2022/02/19 06:26:16;;;;;;;8.97;8.17;;;;;;;3.83;58.50;96707.91;5113218;28;20164;-61
2022/02/19 06:28:42;;;;;;;12.33;8.83;;;;;;;3.82;58.80;96713.28;5116117;28;20206;-61
2022/02/19 06:31:07;;;;;;;11.73;8.27;;;;;;;3.82;59.32;96710.69;5113988;28;20165;-63
2022/02/19 06:33:33;;;;;;;7.33;6.63;;;;;;;3.83;58.39;96710.50;5114279;28;20167;-62
2022/02/19 06:35:58;;;;;;;11.57;7.43;;;;;;;3.86;58.67;96714.50;5096748;28;20640;-61
2022/02/19 06:38:24;;;;;;;7.70;6.90;;;;;;;3.85;58.92;96726.66;5096221;28;20176;-62
2022/02/19 06:40:49;;;;;;;9.67;8.77;;;;;;;3.92;59.03;96724.13;5095560;28;20176;-62
2022/02/19 06:43:15;;;;;;;10.80;8.77;;;;;;;3.99;58.57;96730.19;5111796;28;20258;-60
2022/02/19 06:45:40;;;;;;;9.63;8.97;;;;;;;3.97;58.35;96732.94;5116357;28;20200;-61
2022/02/19 06:48:06;;;;;;;9.87;8.37;;;;;;;4.06;58.80;96736.22;5116273;28;20214;-63
2022/02/19 06:50:32;;;;;;;8.57;8.00;;;;;;;3.89;58.41;96740.06;5116082;28;20228;-61
2022/02/19 06:52:58;;;;;;;10.13;9.20;;;;;;;3.93;58.18;96738.69;5098549;28;20204;-62
2022/02/19 06:55:23;;;;;;;11.73;8.73;;;;;;;3.89;57.99;96740.88;5096178;28;20177;-62
2022/02/19 06:57:49;;;;;;;9.40;8.70;;;;;;;3.93;58.28;96739.50;5096060;28;20168;-64
2022/02/19 07:00:16;;;;;;;10.33;9.40;;;;;;;3.94;57.80;96750.69;5095298;28;20177;-60
2022/02/19 07:02:42;;;;;;;9.40;8.67;;;;;;;3.87;58.51;96752.41;5110248;28;20203;-64
2022/02/19 07:05:08;;;;;;;9.03;8.23;;;;;;;4.01;57.80;96756.75;5115487;28;20219;-60
2022/02/19 07:07:35;;;;;;;10.47;9.50;;;;;;;4.08;58.51;96767.94;5111975;28;20567;-61
2022/02/19 07:10:01;;;;;;;12.17;9.93;;;;;;;4.25;57.30;96771.88;5095322;28;20208;-61
2022/02/19 07:12:27;;;;;;;9.77;9.17;;;;;;;4.38;57.23;96789.38;5094849;28;20258;-58
2022/02/19 07:14:52;;;;;;;9.57;8.67;;;;;;;4.45;56.89;96780.66;5114596;28;20176;-57
2022/02/19 07:17:18;;;;;;;10.27;9.40;;;;;;;4.66;56.42;96787.59;5106707;28;20168;-60
2022/02/19 07:19:43;;;;;;;17.67;16.17;;;;;;;4.86;55.66;96787.69;5115472;28;20175;-60
2022/02/19 07:22:09;;;;;;;16.20;14.97;;;;;;;4.64;56.16;96799.13;5115275;28;20199;-60
2022/02/19 07:24:34;;;;;;;15.63;14.53;;;;;;;4.57;56.52;96799.88;5115797;28;20204;-60
2022/02/19 07:27:00;;;;;;;17.37;16.13;;;;;;;4.80;55.94;96810.03;5114186;28;20164;-59
2022/02/19 07:29:26;;;;;;;17.03;16.10;;;;;;;4.79;55.35;96808.44;5115320;28;20196;-56
2022/02/19 07:31:51;;;;;;;18.30;16.63;;;;;;;4.77;55.63;96807.84;5115077;28;20203;-59
2022/02/19 07:34:17;;;;;;;17.97;16.47;;;;;;;4.90;55.62;96822.72;5115176;28;20196;-61
2022/02/19 07:36:43;;;;;;;16.97;15.50;;;;;;;5.01;55.50;96822.19;5113847;28;20172;-63
2022/02/19 07:39:09;;;;;;;19.30;17.83;;;;;;;5.13;54.64;96823.22;5115260;28;20198;-58
2022/02/19 07:41:35;;;;;;;16.20;14.80;;;;;;;5.03;55.27;96825.38;5115233;28;20628;-56
2022/02/19 07:44:02;;;;;;;14.93;14.20;;;;;;;4.94;55.31;96832.53;5114963;28;20180;-59
2022/02/19 07:46:27;;;;;;;17.90;16.93;;;;;;;4.92;55.63;96836.28;5110527;28;20161;-57
2022/02/19 07:48:53;;;;;;;18.70;16.97;;;;;;;5.05;55.41;96841.56;5114721;28;20203;-61
2022/02/19 07:59:30;;;;;;;14.77;13.37;;;;;;;6.08;54.38;96851.03;5114419;28;20252;-57
2022/02/19 08:01:56;;;;;;;13.63;12.40;;;;;;;6.06;54.44;96851.25;5113141;28;20684;-59
2022/02/19 08:04:21;;;;;;;13.93;13.03;;;;;;;6.28;54.34;96859.72;5113382;28;20184;-61
2022/02/19 08:06:47;;;;;;;12.33;11.13;;;;;;;6.07;52.84;96862.47;5114586;28;20168;-61
2022/02/19 08:09:13;;;;;;;12.27;11.33;;;;;;;5.97;53.20;96870.63;5113761;28;20196;-59
2022/02/19 08:11:39;;;;;;;13.97;12.90;;;;;;;6.08;53.40;96872.66;5108186;28;20228;-61
2022/02/19 08:14:05;;;;;;;13.07;12.17;;;;;;;5.93;52.63;96858.22;5112213;28;20191;-59
2022/02/19 08:16:31;;;;;;;14.70;13.50;;;;;;;5.99;53.34;96875.66;5107282;28;20173;-58
2022/02/19 08:18:58;;;;;;;15.47;14.23;;;;;;;6.05;53.12;96874.88;5092968;28;20165;-61
2022/02/19 08:21:24;;;;;;;14.17;13.23;;;;;;;5.91;53.26;96871.41;5094099;28;20196;-59
2022/02/19 08:23:49;;;;;;;16.13;14.50;;;;;;;6.07;52.87;96873.69;5106425;28;20255;-59
2022/02/19 08:26:22;;;;;;;15.67;14.37;;;;;;;6.12;52.95;96878.31;5108850;28;20197;-60
2022/02/19 08:28:47;;;;;;;15.97;14.13;;;;;;;6.35;52.70;96880.56;5072691;28;20201;-61
2022/02/19 08:31:13;;;;;;;15.47;14.20;;;;;;;6.32;52.47;96879.13;5091901;28;20230;-61
2022/02/19 08:33:38;;;;;;;16.17;14.97;;;;;;;6.30;52.93;96883.72;5093450;28;20313;-61
2022/02/19 08:36:05;;;;;;;15.63;14.30;;;;;;;6.27;53.16;96891.94;5094048;28;20164;-60
2022/02/19 08:38:30;;;;;;;14.43;13.13;;;;;;;6.07;53.44;96891.09;5099789;28;20164;-61
2022/02/19 08:40:56;;;;;;;17.00;15.97;;;;;;;6.11;53.25;96887.09;5096522;28;20222;-60
2022/02/19 08:43:22;;;;;;;13.50;12.20;;;;;;;6.02;53.17;96880.47;5094357;28;20253;-54
2022/02/19 08:45:47;;;;;;;15.53;14.53;;;;;;;5.84;52.69;96884.38;5113769;28;20179;-58
2022/02/19 08:48:13;;;;;;;15.17;13.93;;;;;;;5.76;53.78;96886.31;5101455;28;20173;-60
2022/02/19 08:50:40;;;;;;;19.27;17.40;;;;;;;6.17;53.30;96891.53;5092012;28;20199;-61
2022/02/19 08:53:06;;;;;;;19.23;17.67;;;;;;;6.05;53.96;96891.28;5093033;28;20224;-54
2022/02/19 08:55:32;;;;;;;16.43;15.13;;;;;;;6.15;52.87;96901.31;5093112;28;20273;-58
2022/02/19 08:57:58;;;;;;;16.27;14.73;;;;;;;6.18;52.27;96890.53;5092979;28;20577;-55
2022/02/19 09:00:24;;;;;;;15.57;14.23;;;;;;;6.06;52.45;96903.31;5094216;28;20176;-63
2022/02/19 09:02:49;;;;;;;14.13;13.13;;;;;;;5.91;52.33;96907.81;5094820;28;20235;-57
2022/02/19 09:05:17;;;;;;;14.57;13.13;;;;;;;6.18;51.81;96909.56;5102870;28;20234;-56
2022/02/19 09:07:43;;;;;;;12.57;11.57;;;;;;;6.01;52.27;96910.88;5096189;28;20183;-55
2022/02/19 09:10:12;;;;;;;12.23;11.03;;;;;;;5.97;52.28;96917.47;5096495;28;20641;-58
2022/02/19 09:12:43;;;;;;;13.57;12.00;;;;;;;6.02;51.78;96922.88;5090967;28;20236;-58
2022/02/19 09:15:09;;;;;;;11.93;11.13;;;;;;;6.14;51.75;96917.91;5092989;28;20169;-56
2022/02/19 09:17:34;;;;;;;12.37;11.40;;;;;;;6.40;51.41;96923.22;5092531;28;20691;-55
2022/02/19 09:20:00;;;;;;;13.60;12.47;;;;;;;6.28;51.91;96924.78;5092460;28;20207;-56
2022/02/19 09:22:25;;;;;;;13.10;11.80;;;;;;;6.34;51.74;96928.41;5092104;28;20223;-59
2022/02/19 09:24:51;;;;;;;13.70;12.60;;;;;;;6.51;51.51;96929.66;5092974;28;20208;-58
2022/02/19 09:27:16;;;;;;;12.87;11.63;;;;;;;6.63;50.70;96928.06;5092642;28;20226;-58
2022/02/19 09:29:41;;;;;;;10.87;10.07;;;;;;;6.23;51.53;96941.00;5092481;28;20238;-59
2022/02/19 09:32:07;;;;;;;9.87;9.17;;;;;;;6.53;50.80;96928.44;5092532;28;20268;-58
2022/02/19 09:34:33;;;;;;;10.27;9.50;;;;;;;6.52;50.50;96934.63;5092825;28;20237;-59
2022/02/19 09:36:59;;;;;;;11.33;10.33;;;;;;;6.66;49.78;96940.69;5091731;28;20181;-59
2022/02/19 09:39:24;;;;;;;9.73;9.10;;;;;;;6.34;50.83;96938.81;5092897;28;20169;-57
2022/02/19 09:41:50;;;;;;;10.70;9.80;;;;;;;6.29;51.47;96941.22;5092465;28;20200;-55
2022/02/19 09:44:16;;;;;;;12.10;10.00;;;;;;;6.45;51.25;96941.66;5092804;28;20200;-56
2022/02/19 09:46:41;;;;;;;10.73;9.20;;;;;;;6.59;50.91;96930.25;5092452;28;20267;-61
2022/02/19 09:49:08;;;;;;;11.63;10.67;;;;;;;6.46;51.43;96943.25;5092897;28;20188;-56
2022/02/19 09:51:35;;;;;;;10.70;9.90;;;;;;;6.50;51.43;96944.47;5092138;28;20269;-58
2022/02/19 09:54:01;;;;;;;10.33;9.53;;;;;;;6.54;51.61;96942.25;5092679;28;20190;-60
2022/02/19 09:56:29;;;;;;;8.13;7.53;;;;;;;6.48;51.22;96936.03;5092262;28;20168;-56
2022/02/19 09:58:55;;;;;;;9.10;8.33;;;;;;;6.57;51.77;96942.69;5088080;28;20230;-54
2022/02/19 10:01:23;;;;;;;11.07;9.80;;;;;;;6.88;51.04;96943.94;5088283;28;20690;-58
2022/02/19 10:04:02;;;;;;;10.43;9.63;;;;;;;6.69;51.08;96953.31;5091639;28;20237;-58
2022/02/19 10:06:33;;;;;;;10.23;9.23;;;;;;;6.69;51.13;96943.69;5088491;28;20177;-55
2022/02/19 10:09:09;;;;;;;9.93;9.03;;;;;;;6.66;51.36;96951.91;5091852;28;20196;-55
2022/02/19 10:11:35;;;;;;;10.23;9.30;;;;;;;6.79;51.17;96952.94;5084909;28;20286;-59
2022/02/19 10:14:22;;;;;;;9.17;8.57;;;;;;;7.16;50.33;96948.94;5071499;28;20231;-56
2022/02/19 10:17:11;;;;;;;10.47;9.40;;;;;;;7.11;49.89;96944.34;5053228;28;20201;-58
2022/02/19 10:19:54;;;;;;;9.60;8.80;;;;;;;6.91;50.36;96952.13;5071701;28;20235;-52
2022/02/19 10:22:25;;;;;;;10.27;8.33;;;;;;;6.89;50.66;96948.94;5070840;28;20228;-54
2022/02/19 10:24:59;;;;;;;10.53;9.60;;;;;;;6.53;50.17;96935.44;5071733;28;20169;-57
2022/02/19 10:28:01;;;;;;;9.67;7.07;;;;;;;6.85;49.51;96950.34;5071776;28;20173;-58
2022/02/19 10:30:27;;;;;;;6.67;6.07;;;;;;;7.15;49.58;96949.94;5006602;28;20684;-58
2022/02/19 10:33:02;;;;;;;7.70;6.97;;;;;;;7.30;49.14;96946.13;5071713;28;20212;-56
2022/02/19 10:35:36;;;;;;;7.03;6.33;;;;;;;7.24;48.71;96960.00;5054203;28;20218;-55
2022/02/19 10:38:04;;;;;;;6.50;5.97;;;;;;;7.27;47.53;96949.16;5071706;28;20608;-58
2022/02/19 10:40:46;;;;;;;5.70;4.53;;;;;;;7.55;47.36;96961.97;5071233;28;20158;-55
2022/02/19 10:43:20;;;;;;;5.57;4.60;;;;;;;7.48;47.20;96956.75;5057038;28;20258;-55
2022/02/19 10:45:59;;;;;;;5.30;4.77;;;;;;;7.72;47.05;96965.75;5072077;28;20188;-55
2022/02/19 10:48:29;;;;;;;4.00;3.43;;;;;;;7.53;47.08;96958.75;5072065;28;20568;-57
2022/02/19 10:51:15;;;;;;;5.63;4.17;;;;;;;7.40;47.09;96959.56;5074972;28;20726;-62
2022/02/19 10:53:49;;;;;;;5.13;4.13;;;;;;;7.45;47.46;96962.38;5024031;28;20239;-57
2022/02/19 10:56:16;;;;;;;4.50;3.80;;;;;;;7.46;47.57;96968.41;5075381;28;20168;-56
2022/02/19 10:58:58;;;;;;;8.47;4.03;;;;;;;7.38;47.60;96965.97;5075303;28;20665;-59
2022/02/19 11:01:23;;;;;;;3.90;3.67;;;;;;;7.66;47.27;96973.56;5074672;28;20197;-55
2022/02/19 11:03:49;;;;;;;4.13;3.27;;;;;;;7.95;46.92;96978.34;5075063;28;20227;-62
2022/02/19 11:06:15;;;;;;;8.73;8.03;;;;;;;8.79;52.13;96969.56;5075369;28;20657;-59
2022/02/19 11:08:47;;;;;;;7.53;7.03;;;;;;;8.78;45.77;96966.16;5074637;28;20283;-71
2022/02/19 11:11:13;;;;;;;5.20;3.43;;;;;;;8.79;44.15;96977.41;5074841;28;20181;-56
2022/02/19 11:13:39;;;;;;;6.77;3.40;;;;;;;8.40;43.38;96981.81;5092265;28;20232;-60
2022/02/19 11:16:05;;;;;;;9.10;3.33;;;;;;;8.48;42.93;96983.38;5095041;28;20663;-58
2022/02/19 11:18:34;;;;;;;5.90;2.70;;;;;;;8.12;44.05;96970.84;5094926;28;20173;-57
2022/02/19 11:21:04;;;;;;;2.90;2.63;;;;;;;8.41;42.97;96961.75;5083926;28;20261;-57
2022/02/19 11:23:32;;;;;;;3.53;2.77;;;;;;;8.24;43.17;96977.03;5094885;28;20205;-59
2022/02/19 11:26:01;;;;;;;7.13;3.00;;;;;;;8.26;43.73;96962.75;5095239;28;20177;-59
2022/02/19 11:28:32;;;;;;;3.67;3.33;;;;;;;8.35;42.69;96973.81;5094760;28;20625;-59
2022/02/19 11:31:00;;;;;;;3.47;2.97;;;;;;;8.10;43.74;96975.47;5094721;28;20200;-60
2022/02/19 11:33:28;;;;;;;3.00;2.73;;;;;;;8.57;43.11;96958.66;5095030;28;20183;-59
2022/02/19 11:35:58;;;;;;;2.97;2.63;;;;;;;8.58;42.99;96961.03;5076595;28;20176;-60